Tropical Cyclones
[Index]
Main Index Home Page Stock Weather Photos Extreme Storms Discussion Storm News and Storm Chasing Reports Tropical Cyclones / Hurricanes / Typhoons Weather Data and Links Wild Fires / Bushfires Weather Observation Techniques Weather Picture Catalogue Tornado Pictures and Reports Stock Video Footage and DVDs for sale
Season 1994-1995 Tropical Cyclone KYLIE Track Map
Season 1994-1995 Summaries: [BoM-AU] [JTWC-AU] [JTWC-SIO] [JTWC-SPAC] [JTWC-SH]
<<- Previous TC | JTWC 1994-1995 Season | Next TC ->>

click for intensity scale information  Lat/long Grid: Show Hide

 Date Labels: Show Hide

Joint Typhoon Warning Centre Cyclone Data

Name: KYLIE

04 Mar 1995 18:00 UTC to 15 Mar 1995 06:00 UTC

    date/time    lat    long     hPa   cat  kts
1995-03-04 18   13.2    55.4                  15          
1995-03-05 00   13.3    55.6                  15          
1995-03-05 06   13.4    55.7                  20          
1995-03-05 12   13.5    55.9                  20          
1995-03-05 18   13.6    56.0                  20          
1995-03-06 00   13.7    56.2                  20          
1995-03-06 06   13.8    56.3                  25          
1995-03-06 12   13.9    56.5                  25          
1995-03-06 18   14.0    56.6                  25          
1995-03-07 00   14.1    56.8                  25          
1995-03-07 06   14.2    57.0                  30          
1995-03-07 12   14.3    57.2                  30          
1995-03-07 18   14.4    57.4                  30          
1995-03-08 00   14.5    57.6                  35          
1995-03-08 06   14.6    57.8                  35          
1995-03-08 12   14.7    58.0            1     40          
1995-03-08 18   14.7    58.1            1     40          
1995-03-09 00   14.8    58.2            1     40          
1995-03-09 06   14.8    58.3            1     45          
1995-03-09 12   14.8    58.4            1     45          
1995-03-09 18   14.9    58.3            1     45          
1995-03-10 00   14.9    58.2            1     50          
1995-03-10 06   14.9    58.1            1     50          
1995-03-10 12   15.0    58.0            2     55          
1995-03-10 18   15.0    57.9            2     55          
1995-03-11 00   15.0    57.8            2     60          
1995-03-11 06   15.1    57.6            2     65          
1995-03-11 12   15.2    57.4            2     70          
1995-03-11 18   15.4    57.2            3     75          
1995-03-12 00   15.8    57.1            3     85          
1995-03-12 06   16.4    57.0            3     85          
1995-03-12 12   17.1    56.9            3     85          
1995-03-12 18   17.9    56.6            3     85          
1995-03-13 00   18.9    56.3            3     85          
1995-03-13 06   19.9    56.0            3     75          
1995-03-13 12   20.7    55.4            2     65          
1995-03-13 18   21.4    54.6            2     55          
1995-03-14 00   21.9    53.7            1     50          
1995-03-14 06   22.7    52.9            1     45          
1995-03-14 12   24.0    52.6            1     40          
1995-03-14 18   25.5    53.0                  35          
1995-03-15 00   27.1    53.9                  30          
1995-03-15 06   28.9    55.3                  25          
Winds are 1-min average.

Tropical cyclone tracks developed by Michael Bath using data from the Joint Typhoon Warning Centre Best Tracks and Google Maps.


[Australian Severe Weather index] [Copyright Notice] [Email Contacts] [Search This Site] [Privacy Policy]
Document: tropical_cyclone_kylie.htm Updated: 18 September 2016